TimeEDT,TemperatureF,Dew PointF,Humidity,Sea Level PressureIn,VisibilityMPH,Wind Direction,Wind SpeedMPH,Gust SpeedMPH,PrecipitationIn,Events,Conditions,WindDirDegrees,DateUTC
12:51 AM,75.0,71.1,87,29.70,10.0,SSW,4.6,-,N/A,,Clear,200,2013-06-30 04:51:00
1:51 AM,73.9,71.1,91,29.71,10.0,South,4.6,-,N/A,,Clear,170,2013-06-30 05:51:00
2:51 AM,73.9,70.0,87,29.72,9.0,Calm,Calm,-,N/A,,Clear,0,2013-06-30 06:51:00
3:51 AM,73.0,70.0,90,29.71,8.0,Calm,Calm,-,N/A,,Clear,0,2013-06-30 07:51:00
4:51 AM,72.0,70.0,93,29.73,9.0,Calm,Calm,-,0.00,Rain,Light Rain,0,2013-06-30 08:51:00
5:51 AM,73.0,70.0,90,29.75,8.0,Calm,Calm,-,0.00,,Clear,0,2013-06-30 09:51:00
6:51 AM,73.9,71.1,91,29.78,8.0,Calm,Calm,-,N/A,,Mostly Cloudy,0,2013-06-30 10:51:00
7:51 AM,75.0,71.1,87,29.80,9.0,SSW,4.6,-,N/A,,Overcast,210,2013-06-30 11:51:00
8:51 AM,78.1,72.0,81,29.80,7.0,ESE,5.8,-,N/A,,Mostly Cloudy,120,2013-06-30 12:51:00
9:51 AM,79.0,72.0,79,29.80,7.0,South,3.5,-,N/A,,Mostly Cloudy,180,2013-06-30 13:51:00
10:51 AM,82.0,73.0,74,29.81,7.0,SSE,4.6,-,N/A,,Mostly Cloudy,150,2013-06-30 14:51:00
11:42 AM,82.4,71.6,70,29.81,10.0,Variable,3.5,-,N/A,,Overcast,0,2013-06-30 15:42:00
11:51 AM,82.0,72.0,71,29.81,10.0,SSE,4.6,-,N/A,,Overcast,150,2013-06-30 15:51:00
12:18 PM,84.2,71.6,66,29.80,10.0,SSE,6.9,-,N/A,,Overcast,160,2013-06-30 16:18:00
12:27 PM,86.0,73.4,66,29.80,10.0,South,9.2,-,N/A,,Scattered Clouds,170,2013-06-30 16:27:00
12:51 PM,86.0,71.1,61,29.80,10.0,South,10.4,-,N/A,,Mostly Cloudy,180,2013-06-30 16:51:00
1:51 PM,82.9,70.0,65,29.80,10.0,South,12.7,-,N/A,,Clear,170,2013-06-30 17:51:00
2:51 PM,80.1,71.1,74,29.82,10.0,SE,11.5,-,0.00,Rain,Light Rain,130,2013-06-30 18:51:00
3:51 PM,79.0,72.0,79,29.81,5.0,SSE,10.4,-,0.00,Rain,Light Rain,150,2013-06-30 19:51:00
4:51 PM,79.0,72.0,79,29.82,5.0,SSE,11.5,18.4,0.00,Rain,Light Rain,160,2013-06-30 20:51:00
5:51 PM,79.0,71.1,77,29.82,5.0,South,8.1,-,0.00,Rain,Light Rain,170,2013-06-30 21:51:00
6:51 PM,79.0,72.0,79,29.83,7.0,SSE,5.8,-,0.00,,Clear,160,2013-06-30 22:51:00
7:51 PM,78.1,71.1,79,29.85,10.0,ESE,10.4,-,N/A,,Mostly Cloudy,110,2013-06-30 23:51:00
8:05 PM,77.0,71.6,83,29.85,6.0,SE,6.9,-,N/A,,Haze,130,2013-07-01 00:05:00
8:51 PM,75.9,71.1,85,29.86,6.0,SSE,5.8,-,N/A,,Haze,150,2013-07-01 00:51:00
9:51 PM,75.0,71.1,87,29.88,6.0,SSE,4.6,-,N/A,,Clear,160,2013-07-01 01:51:00
10:51 PM,73.9,70.0,87,29.90,10.0,South,5.8,-,N/A,,Clear,180,2013-07-01 02:51:00
11:07 PM,73.4,69.8,88,29.90,10.0,South,6.9,-,N/A,,Mostly Cloudy,170,2013-07-01 03:07:00
11:33 PM,73.4,69.8,88,29.90,10.0,South,4.6,-,N/A,,Partly Cloudy,170,2013-07-01 03:33:00
11:51 PM,73.9,70.0,87,29.90,10.0,South,3.5,-,N/A,,Clear,170,2013-07-01 03:51:00